sensor_id;sensor_type;location;lat;lon;timestamp;P1;durP1;ratioP1;P2;durP2;ratioP2
21959;SDS011;11144;43.030;25.108;2023-12-20T00:00:35;37.03;;;16.55;;
21959;SDS011;11144;43.030;25.108;2023-12-20T00:02:09;32.95;;;14.55;;
21959;SDS011;11144;43.030;25.108;2023-12-20T00:03:44;35.22;;;15.63;;
21959;SDS011;11144;43.030;25.108;2023-12-20T00:05:16;34.85;;;18.60;;
21959;SDS011;11144;43.030;25.108;2023-12-20T00:06:50;30.13;;;14.38;;
21959;SDS011;11144;43.030;25.108;2023-12-20T00:08:23;28.95;;;12.73;;
21959;SDS011;11144;43.030;25.108;2023-12-20T00:09:56;27.75;;;11.35;;
21959;SDS011;11144;43.030;25.108;2023-12-20T00:11:28;26.77;;;12.48;;
21959;SDS011;11144;43.030;25.108;2023-12-20T00:13:02;31.38;;;13.60;;
21959;SDS011;11144;43.030;25.108;2023-12-20T00:14:34;34.60;;;15.85;;
21959;SDS011;11144;43.030;25.108;2023-12-20T00:16:09;35.72;;;16.38;;
21959;SDS011;11144;43.030;25.108;2023-12-20T00:17:41;48.33;;;21.65;;
21959;SDS011;11144;43.030;25.108;2023-12-20T00:19:16;45.78;;;23.17;;
21959;SDS011;11144;43.030;25.108;2023-12-20T00:20:48;47.80;;;22.25;;
21959;SDS011;11144;43.030;25.108;2023-12-20T00:22:22;42.03;;;21.38;;
21959;SDS011;11144;43.030;25.108;2023-12-20T00:23:54;43.70;;;23.40;;
21959;SDS011;11144;43.030;25.108;2023-12-20T00:25:27;47.85;;;22.02;;
21959;SDS011;11144;43.030;25.108;2023-12-20T00:27:00;46.88;;;22.75;;
21959;SDS011;11144;43.030;25.108;2023-12-20T00:28:34;46.97;;;23.00;;
21959;SDS011;11144;43.030;25.108;2023-12-20T00:30:06;50.55;;;23.95;;
21959;SDS011;11144;43.030;25.108;2023-12-20T00:31:40;39.53;;;20.50;;
21959;SDS011;11144;43.030;25.108;2023-12-20T00:33:14;47.60;;;20.58;;
21959;SDS011;11144;43.030;25.108;2023-12-20T00:34:48;40.00;;;19.25;;
21959;SDS011;11144;43.030;25.108;2023-12-20T00:36:21;46.35;;;20.10;;
21959;SDS011;11144;43.030;25.108;2023-12-20T00:37:54;36.55;;;18.38;;
21959;SDS011;11144;43.030;25.108;2023-12-20T00:39:27;33.50;;;15.57;;
21959;SDS011;11144;43.030;25.108;2023-12-20T00:40:59;37.22;;;16.88;;
21959;SDS011;11144;43.030;25.108;2023-12-20T00:42:32;33.40;;;16.10;;
21959;SDS011;11144;43.030;25.108;2023-12-20T00:44:05;32.22;;;15.43;;
21959;SDS011;11144;43.030;25.108;2023-12-20T00:45:38;28.77;;;13.93;;
21959;SDS011;11144;43.030;25.108;2023-12-20T00:47:11;31.17;;;13.48;;
21959;SDS011;11144;43.030;25.108;2023-12-20T00:48:44;29.60;;;13.70;;
21959;SDS011;11144;43.030;25.108;2023-12-20T00:50:19;29.92;;;14.90;;
21959;SDS011;11144;43.030;25.108;2023-12-20T00:51:54;27.55;;;14.15;;
21959;SDS011;11144;43.030;25.108;2023-12-20T00:53:27;29.17;;;13.90;;
21959;SDS011;11144;43.030;25.108;2023-12-20T00:55:00;26.80;;;13.48;;
21959;SDS011;11144;43.030;25.108;2023-12-20T00:56:32;16.95;;;9.68;;
21959;SDS011;11144;43.030;25.108;2023-12-20T00:58:06;22.35;;;10.43;;
21959;SDS011;11144;43.030;25.108;2023-12-20T00:59:38;24.27;;;11.52;;
21959;SDS011;11144;43.030;25.108;2023-12-20T01:01:11;22.98;;;10.50;;
21959;SDS011;11144;43.030;25.108;2023-12-20T01:02:45;18.38;;;8.52;;
21959;SDS011;11144;43.030;25.108;2023-12-20T01:04:21;19.83;;;9.02;;
21959;SDS011;11144;43.030;25.108;2023-12-20T01:05:54;15.73;;;9.13;;
21959;SDS011;11144;43.030;25.108;2023-12-20T01:07:28;18.67;;;8.25;;
21959;SDS011;11144;43.030;25.108;2023-12-20T01:09:00;18.88;;;9.05;;
21959;SDS011;11144;43.030;25.108;2023-12-20T01:10:34;21.05;;;10.15;;
21959;SDS011;11144;43.030;25.108;2023-12-20T01:12:06;17.98;;;9.27;;
21959;SDS011;11144;43.030;25.108;2023-12-20T01:13:39;22.73;;;11.77;;
21959;SDS011;11144;43.030;25.108;2023-12-20T01:15:12;18.00;;;9.68;;
21959;SDS011;11144;43.030;25.108;2023-12-20T01:16:47;19.23;;;10.73;;
21959;SDS011;11144;43.030;25.108;2023-12-20T01:18:19;23.95;;;10.07;;
21959;SDS011;11144;43.030;25.108;2023-12-20T01:19:52;19.98;;;10.30;;
21959;SDS011;11144;43.030;25.108;2023-12-20T01:21:26;19.73;;;10.18;;
21959;SDS011;11144;43.030;25.108;2023-12-20T01:23:00;24.25;;;10.00;;
21959;SDS011;11144;43.030;25.108;2023-12-20T01:24:32;23.52;;;11.98;;
21959;SDS011;11144;43.030;25.108;2023-12-20T01:26:05;38.05;;;19.52;;
21959;SDS011;11144;43.030;25.108;2023-12-20T01:27:37;41.35;;;21.35;;
21959;SDS011;11144;43.030;25.108;2023-12-20T01:29:11;39.55;;;19.80;;
21959;SDS011;11144;43.030;25.108;2023-12-20T01:30:44;41.00;;;22.00;;
21959;SDS011;11144;43.030;25.108;2023-12-20T01:32:18;45.03;;;21.17;;
21959;SDS011;11144;43.030;25.108;2023-12-20T01:33:50;38.78;;;19.20;;
21959;SDS011;11144;43.030;25.108;2023-12-20T01:35:23;44.45;;;19.70;;
21959;SDS011;11144;43.030;25.108;2023-12-20T01:36:57;41.53;;;21.40;;
21959;SDS011;11144;43.030;25.108;2023-12-20T01:38:31;40.95;;;21.90;;
21959;SDS011;11144;43.030;25.108;2023-12-20T01:40:04;40.45;;;20.17;;
21959;SDS011;11144;43.030;25.108;2023-12-20T01:41:40;46.95;;;24.00;;
21959;SDS011;11144;43.030;25.108;2023-12-20T01:43:12;43.65;;;23.95;;
21959;SDS011;11144;43.030;25.108;2023-12-20T01:44:46;55.97;;;27.48;;
21959;SDS011;11144;43.030;25.108;2023-12-20T01:46:20;55.40;;;26.63;;
21959;SDS011;11144;43.030;25.108;2023-12-20T01:47:53;53.88;;;27.60;;
21959;SDS011;11144;43.030;25.108;2023-12-20T01:49:27;53.35;;;27.00;;
21959;SDS011;11144;43.030;25.108;2023-12-20T01:51:00;63.85;;;29.40;;
21959;SDS011;11144;43.030;25.108;2023-12-20T01:52:36;66.25;;;30.75;;
21959;SDS011;11144;43.030;25.108;2023-12-20T01:54:09;61.72;;;30.48;;
21959;SDS011;11144;43.030;25.108;2023-12-20T01:55:42;62.75;;;30.27;;
21959;SDS011;11144;43.030;25.108;2023-12-20T01:57:15;64.43;;;32.53;;
21959;SDS011;11144;43.030;25.108;2023-12-20T01:58:49;71.45;;;35.10;;
21959;SDS011;11144;43.030;25.108;2023-12-20T02:00:21;83.72;;;37.40;;
21959;SDS011;11144;43.030;25.108;2023-12-20T02:01:58;83.00;;;39.45;;
21959;SDS011;11144;43.030;25.108;2023-12-20T02:03:30;75.40;;;38.35;;
21959;SDS011;11144;43.030;25.108;2023-12-20T02:05:04;73.63;;;35.95;;
21959;SDS011;11144;43.030;25.108;2023-12-20T02:06:37;71.82;;;34.75;;
21959;SDS011;11144;43.030;25.108;2023-12-20T02:08:14;63.80;;;35.15;;
21959;SDS011;11144;43.030;25.108;2023-12-20T02:09:46;68.05;;;33.67;;
21959;SDS011;11144;43.030;25.108;2023-12-20T02:11:20;66.47;;;33.25;;
21959;SDS011;11144;43.030;25.108;2023-12-20T02:12:53;61.38;;;32.47;;
21959;SDS011;11144;43.030;25.108;2023-12-20T02:14:26;55.35;;;30.52;;
21959;SDS011;11144;43.030;25.108;2023-12-20T02:15:58;63.00;;;32.35;;
21959;SDS011;11144;43.030;25.108;2023-12-20T02:17:33;41.28;;;20.83;;
21959;SDS011;11144;43.030;25.108;2023-12-20T02:19:06;38.90;;;17.55;;
21959;SDS011;11144;43.030;25.108;2023-12-20T02:20:45;31.65;;;14.77;;
21959;SDS011;11144;43.030;25.108;2023-12-20T02:22:20;30.55;;;15.05;;
21959;SDS011;11144;43.030;25.108;2023-12-20T02:23:52;26.77;;;14.05;;
21959;SDS011;11144;43.030;25.108;2023-12-20T02:25:26;23.48;;;12.05;;
21959;SDS011;11144;43.030;25.108;2023-12-20T02:26:58;25.75;;;11.27;;
21959;SDS011;11144;43.030;25.108;2023-12-20T02:28:31;22.95;;;10.95;;
21959;SDS011;11144;43.030;25.108;2023-12-20T02:30:04;17.58;;;9.65;;
21959;SDS011;11144;43.030;25.108;2023-12-20T02:31:38;18.17;;;10.13;;
21959;SDS011;11144;43.030;25.108;2023-12-20T02:33:31;16.52;;;8.85;;
21959;SDS011;11144;43.030;25.108;2023-12-20T02:35:05;17.77;;;7.68;;
21959;SDS011;11144;43.030;25.108;2023-12-20T02:36:37;18.23;;;8.68;;
21959;SDS011;11144;43.030;25.108;2023-12-20T02:38:12;19.70;;;9.65;;
21959;SDS011;11144;43.030;25.108;2023-12-20T02:39:45;17.52;;;9.15;;
21959;SDS011;11144;43.030;25.108;2023-12-20T02:41:18;20.15;;;10.60;;
21959;SDS011;11144;43.030;25.108;2023-12-20T02:42:50;17.25;;;9.40;;
21959;SDS011;11144;43.030;25.108;2023-12-20T02:44:24;15.70;;;8.43;;
21959;SDS011;11144;43.030;25.108;2023-12-20T02:45:57;18.52;;;9.43;;
21959;SDS011;11144;43.030;25.108;2023-12-20T02:47:30;17.52;;;9.40;;
21959;SDS011;11144;43.030;25.108;2023-12-20T02:49:04;20.60;;;11.60;;
21959;SDS011;11144;43.030;25.108;2023-12-20T02:50:36;26.40;;;12.65;;
21959;SDS011;11144;43.030;25.108;2023-12-20T02:52:09;18.33;;;9.00;;
21959;SDS011;11144;43.030;25.108;2023-12-20T02:53:43;24.45;;;11.45;;
21959;SDS011;11144;43.030;25.108;2023-12-20T02:55:16;23.02;;;11.65;;
21959;SDS011;11144;43.030;25.108;2023-12-20T02:56:49;24.20;;;12.15;;
21959;SDS011;11144;43.030;25.108;2023-12-20T02:58:22;28.58;;;14.60;;
21959;SDS011;11144;43.030;25.108;2023-12-20T02:59:55;24.80;;;12.35;;
21959;SDS011;11144;43.030;25.108;2023-12-20T03:01:28;23.77;;;11.82;;
21959;SDS011;11144;43.030;25.108;2023-12-20T03:03:02;23.15;;;12.68;;
21959;SDS011;11144;43.030;25.108;2023-12-20T03:04:34;22.80;;;12.05;;
21959;SDS011;11144;43.030;25.108;2023-12-20T03:06:08;25.63;;;12.57;;
21959;SDS011;11144;43.030;25.108;2023-12-20T03:07:40;29.08;;;13.45;;
21959;SDS011;11144;43.030;25.108;2023-12-20T03:09:16;23.73;;;11.48;;
21959;SDS011;11144;43.030;25.108;2023-12-20T03:10:48;17.83;;;10.25;;
21959;SDS011;11144;43.030;25.108;2023-12-20T03:12:21;21.48;;;10.90;;
21959;SDS011;11144;43.030;25.108;2023-12-20T03:13:54;21.50;;;10.98;;
21959;SDS011;11144;43.030;25.108;2023-12-20T03:15:27;22.45;;;10.07;;
21959;SDS011;11144;43.030;25.108;2023-12-20T03:16:59;22.83;;;10.60;;
21959;SDS011;11144;43.030;25.108;2023-12-20T03:18:33;17.88;;;9.60;;
21959;SDS011;11144;43.030;25.108;2023-12-20T03:20:06;19.80;;;9.75;;
21959;SDS011;11144;43.030;25.108;2023-12-20T03:21:40;22.83;;;10.40;;
21959;SDS011;11144;43.030;25.108;2023-12-20T03:23:13;21.67;;;11.38;;
21959;SDS011;11144;43.030;25.108;2023-12-20T03:24:47;34.95;;;18.50;;
21959;SDS011;11144;43.030;25.108;2023-12-20T03:26:20;40.20;;;18.88;;
21959;SDS011;11144;43.030;25.108;2023-12-20T03:27:53;41.67;;;18.60;;
21959;SDS011;11144;43.030;25.108;2023-12-20T03:29:26;37.13;;;18.08;;
21959;SDS011;11144;43.030;25.108;2023-12-20T03:30:59;27.17;;;13.63;;
21959;SDS011;11144;43.030;25.108;2023-12-20T03:32:32;36.78;;;15.77;;
21959;SDS011;11144;43.030;25.108;2023-12-20T03:34:05;29.50;;;15.60;;
21959;SDS011;11144;43.030;25.108;2023-12-20T03:35:38;34.90;;;17.55;;
21959;SDS011;11144;43.030;25.108;2023-12-20T03:37:11;34.13;;;15.23;;
21959;SDS011;11144;43.030;25.108;2023-12-20T03:38:43;13.85;;;7.28;;
21959;SDS011;11144;43.030;25.108;2023-12-20T03:40:18;12.52;;;7.82;;
21959;SDS011;11144;43.030;25.108;2023-12-20T03:41:50;15.82;;;7.72;;
21959;SDS011;11144;43.030;25.108;2023-12-20T03:43:24;13.25;;;7.43;;
21959;SDS011;11144;43.030;25.108;2023-12-20T03:44:56;10.82;;;6.55;;
21959;SDS011;11144;43.030;25.108;2023-12-20T03:46:29;13.90;;;7.65;;
21959;SDS011;11144;43.030;25.108;2023-12-20T03:48:03;18.40;;;8.68;;
21959;SDS011;11144;43.030;25.108;2023-12-20T03:49:37;14.32;;;7.55;;
21959;SDS011;11144;43.030;25.108;2023-12-20T03:51:10;11.30;;;6.45;;
21959;SDS011;11144;43.030;25.108;2023-12-20T03:52:43;18.30;;;7.80;;
21959;SDS011;11144;43.030;25.108;2023-12-20T03:54:16;13.13;;;7.32;;
21959;SDS011;11144;43.030;25.108;2023-12-20T03:55:50;13.52;;;7.28;;
21959;SDS011;11144;43.030;25.108;2023-12-20T03:57:22;16.75;;;8.50;;
21959;SDS011;11144;43.030;25.108;2023-12-20T03:58:56;27.15;;;11.02;;
21959;SDS011;11144;43.030;25.108;2023-12-20T04:00:28;54.50;;;22.83;;
21959;SDS011;11144;43.030;25.108;2023-12-20T04:02:02;61.00;;;24.85;;
21959;SDS011;11144;43.030;25.108;2023-12-20T04:03:34;75.70;;;26.60;;
21959;SDS011;11144;43.030;25.108;2023-12-20T04:05:08;62.28;;;24.70;;
21959;SDS011;11144;43.030;25.108;2023-12-20T04:06:41;51.13;;;20.85;;
21959;SDS011;11144;43.030;25.108;2023-12-20T04:08:15;42.47;;;20.02;;
21959;SDS011;11144;43.030;25.108;2023-12-20T04:09:47;40.22;;;19.35;;
21959;SDS011;11144;43.030;25.108;2023-12-20T04:11:22;43.53;;;19.63;;
21959;SDS011;11144;43.030;25.108;2023-12-20T04:12:54;40.72;;;21.58;;
21959;SDS011;11144;43.030;25.108;2023-12-20T04:14:27;50.63;;;25.52;;
21959;SDS011;11144;43.030;25.108;2023-12-20T04:16:00;53.17;;;25.48;;
21959;SDS011;11144;43.030;25.108;2023-12-20T04:17:33;51.13;;;25.30;;
21959;SDS011;11144;43.030;25.108;2023-12-20T04:19:05;47.92;;;23.05;;
21959;SDS011;11144;43.030;25.108;2023-12-20T04:20:39;45.83;;;21.65;;
21959;SDS011;11144;43.030;25.108;2023-12-20T04:22:11;50.28;;;25.30;;
21959;SDS011;11144;43.030;25.108;2023-12-20T04:23:44;41.55;;;20.23;;
21959;SDS011;11144;43.030;25.108;2023-12-20T04:25:16;54.20;;;26.75;;
21959;SDS011;11144;43.030;25.108;2023-12-20T04:26:51;51.28;;;24.95;;
21959;SDS011;11144;43.030;25.108;2023-12-20T04:28:24;46.33;;;24.00;;
21959;SDS011;11144;43.030;25.108;2023-12-20T04:29:57;41.15;;;19.67;;
21959;SDS011;11144;43.030;25.108;2023-12-20T04:31:29;35.45;;;19.83;;
21959;SDS011;11144;43.030;25.108;2023-12-20T04:33:02;37.17;;;19.42;;
21959;SDS011;11144;43.030;25.108;2023-12-20T04:34:36;37.08;;;19.08;;
21959;SDS011;11144;43.030;25.108;2023-12-20T04:36:09;39.60;;;20.83;;
21959;SDS011;11144;43.030;25.108;2023-12-20T04:37:43;39.35;;;20.52;;
21959;SDS011;11144;43.030;25.108;2023-12-20T04:39:15;40.30;;;21.60;;
21959;SDS011;11144;43.030;25.108;2023-12-20T04:40:49;68.90;;;34.97;;
21959;SDS011;11144;43.030;25.108;2023-12-20T04:42:22;60.40;;;31.33;;
21959;SDS011;11144;43.030;25.108;2023-12-20T04:43:56;66.38;;;30.30;;
21959;SDS011;11144;43.030;25.108;2023-12-20T04:45:29;57.03;;;28.30;;
21959;SDS011;11144;43.030;25.108;2023-12-20T04:47:01;57.25;;;28.25;;
21959;SDS011;11144;43.030;25.108;2023-12-20T04:48:35;60.38;;;27.60;;
21959;SDS011;11144;43.030;25.108;2023-12-20T04:50:08;62.72;;;29.30;;
21959;SDS011;11144;43.030;25.108;2023-12-20T04:51:41;52.72;;;25.17;;
21959;SDS011;11144;43.030;25.108;2023-12-20T04:53:15;68.15;;;30.27;;
21959;SDS011;11144;43.030;25.108;2023-12-20T04:54:47;46.63;;;23.98;;
21959;SDS011;11144;43.030;25.108;2023-12-20T04:56:20;56.50;;;28.27;;
21959;SDS011;11144;43.030;25.108;2023-12-20T04:57:54;54.60;;;24.90;;
21959;SDS011;11144;43.030;25.108;2023-12-20T04:59:28;55.20;;;27.63;;
21959;SDS011;11144;43.030;25.108;2023-12-20T05:01:00;69.28;;;30.95;;
21959;SDS011;11144;43.030;25.108;2023-12-20T05:02:34;64.38;;;32.38;;
21959;SDS011;11144;43.030;25.108;2023-12-20T05:04:06;64.57;;;30.92;;
21959;SDS011;11144;43.030;25.108;2023-12-20T05:05:39;67.35;;;32.85;;
21959;SDS011;11144;43.030;25.108;2023-12-20T05:07:12;74.68;;;35.90;;
21959;SDS011;11144;43.030;25.108;2023-12-20T05:08:45;72.10;;;36.10;;
21959;SDS011;11144;43.030;25.108;2023-12-20T05:10:18;91.57;;;40.30;;
21959;SDS011;11144;43.030;25.108;2023-12-20T05:11:51;102.93;;;44.50;;
21959;SDS011;11144;43.030;25.108;2023-12-20T05:13:25;108.35;;;42.08;;
21959;SDS011;11144;43.030;25.108;2023-12-20T05:15:12;102.47;;;45.45;;
21959;SDS011;11144;43.030;25.108;2023-12-20T05:16:46;92.68;;;44.92;;
21959;SDS011;11144;43.030;25.108;2023-12-20T05:18:18;119.07;;;53.13;;
21959;SDS011;11144;43.030;25.108;2023-12-20T05:19:51;86.25;;;41.05;;
21959;SDS011;11144;43.030;25.108;2023-12-20T05:21:24;73.25;;;36.92;;
21959;SDS011;11144;43.030;25.108;2023-12-20T05:22:57;77.30;;;37.55;;
21959;SDS011;11144;43.030;25.108;2023-12-20T05:24:29;69.30;;;35.60;;
21959;SDS011;11144;43.030;25.108;2023-12-20T05:26:03;84.90;;;38.40;;
21959;SDS011;11144;43.030;25.108;2023-12-20T05:27:35;67.72;;;33.53;;
21959;SDS011;11144;43.030;25.108;2023-12-20T05:29:10;61.88;;;30.42;;
21959;SDS011;11144;43.030;25.108;2023-12-20T05:30:42;55.97;;;29.65;;
21959;SDS011;11144;43.030;25.108;2023-12-20T05:32:16;57.90;;;28.67;;
21959;SDS011;11144;43.030;25.108;2023-12-20T05:33:48;48.00;;;25.38;;
21959;SDS011;11144;43.030;25.108;2023-12-20T05:35:22;47.97;;;24.30;;
21959;SDS011;11144;43.030;25.108;2023-12-20T05:36:55;42.08;;;21.38;;
21959;SDS011;11144;43.030;25.108;2023-12-20T05:38:29;35.25;;;17.83;;
21959;SDS011;11144;43.030;25.108;2023-12-20T05:40:01;33.13;;;15.70;;
21959;SDS011;11144;43.030;25.108;2023-12-20T05:41:36;34.80;;;16.30;;
21959;SDS011;11144;43.030;25.108;2023-12-20T05:43:08;35.13;;;16.05;;
21959;SDS011;11144;43.030;25.108;2023-12-20T05:44:42;65.05;;;26.30;;
21959;SDS011;11144;43.030;25.108;2023-12-20T05:46:15;75.50;;;29.88;;
21959;SDS011;11144;43.030;25.108;2023-12-20T05:47:48;83.43;;;32.67;;
21959;SDS011;11144;43.030;25.108;2023-12-20T05:49:21;86.07;;;34.70;;
21959;SDS011;11144;43.030;25.108;2023-12-20T05:50:54;72.72;;;31.83;;
21959;SDS011;11144;43.030;25.108;2023-12-20T05:52:27;72.00;;;32.17;;
21959;SDS011;11144;43.030;25.108;2023-12-20T05:54:00;76.38;;;34.40;;
21959;SDS011;11144;43.030;25.108;2023-12-20T05:55:32;80.13;;;32.83;;
21959;SDS011;11144;43.030;25.108;2023-12-20T05:57:06;79.93;;;35.00;;
21959;SDS011;11144;43.030;25.108;2023-12-20T05:58:38;82.80;;;36.88;;
21959;SDS011;11144;43.030;25.108;2023-12-20T06:00:14;87.35;;;41.75;;
21959;SDS011;11144;43.030;25.108;2023-12-20T06:01:47;107.72;;;52.95;;
21959;SDS011;11144;43.030;25.108;2023-12-20T06:03:20;92.72;;;43.95;;
21959;SDS011;11144;43.030;25.108;2023-12-20T06:04:53;88.80;;;44.75;;
21959;SDS011;11144;43.030;25.108;2023-12-20T06:06:26;99.88;;;49.50;;
21959;SDS011;11144;43.030;25.108;2023-12-20T06:07:58;112.57;;;52.22;;
21959;SDS011;11144;43.030;25.108;2023-12-20T06:09:34;116.55;;;54.30;;
21959;SDS011;11144;43.030;25.108;2023-12-20T06:11:07;124.75;;;54.13;;
21959;SDS011;11144;43.030;25.108;2023-12-20T06:12:41;113.35;;;55.35;;
21959;SDS011;11144;43.030;25.108;2023-12-20T06:14:13;120.60;;;54.00;;
21959;SDS011;11144;43.030;25.108;2023-12-20T06:15:47;101.88;;;50.28;;
21959;SDS011;11144;43.030;25.108;2023-12-20T06:17:20;106.68;;;46.65;;
21959;SDS011;11144;43.030;25.108;2023-12-20T06:18:53;93.35;;;42.38;;
21959;SDS011;11144;43.030;25.108;2023-12-20T06:20:26;75.13;;;39.55;;
21959;SDS011;11144;43.030;25.108;2023-12-20T06:21:59;76.30;;;37.15;;
21959;SDS011;11144;43.030;25.108;2023-12-20T06:23:31;61.22;;;32.33;;
21959;SDS011;11144;43.030;25.108;2023-12-20T06:25:05;65.32;;;31.65;;
21959;SDS011;11144;43.030;25.108;2023-12-20T06:26:38;54.92;;;25.15;;
21959;SDS011;11144;43.030;25.108;2023-12-20T06:28:12;38.50;;;19.33;;
21959;SDS011;11144;43.030;25.108;2023-12-20T06:29:46;39.20;;;20.38;;
21959;SDS011;11144;43.030;25.108;2023-12-20T06:31:21;43.58;;;21.48;;
21959;SDS011;11144;43.030;25.108;2023-12-20T06:32:54;43.58;;;22.75;;
21959;SDS011;11144;43.030;25.108;2023-12-20T06:34:29;90.53;;;44.17;;
21959;SDS011;11144;43.030;25.108;2023-12-20T06:36:03;123.60;;;62.17;;
21959;SDS011;11144;43.030;25.108;2023-12-20T06:37:36;118.90;;;62.20;;
21959;SDS011;11144;43.030;25.108;2023-12-20T06:39:09;124.72;;;61.40;;
21959;SDS011;11144;43.030;25.108;2023-12-20T06:40:44;134.27;;;62.60;;
21959;SDS011;11144;43.030;25.108;2023-12-20T06:42:18;137.07;;;66.07;;
21959;SDS011;11144;43.030;25.108;2023-12-20T06:43:50;134.55;;;67.82;;
21959;SDS011;11144;43.030;25.108;2023-12-20T06:45:24;136.15;;;68.50;;
21959;SDS011;11144;43.030;25.108;2023-12-20T06:46:58;133.02;;;68.07;;
21959;SDS011;11144;43.030;25.108;2023-12-20T06:48:32;119.47;;;59.03;;
21959;SDS011;11144;43.030;25.108;2023-12-20T06:50:04;114.85;;;58.08;;
21959;SDS011;11144;43.030;25.108;2023-12-20T06:51:40;99.53;;;52.47;;
21959;SDS011;11144;43.030;25.108;2023-12-20T06:53:12;109.13;;;53.35;;
21959;SDS011;11144;43.030;25.108;2023-12-20T06:54:46;92.60;;;50.08;;
21959;SDS011;11144;43.030;25.108;2023-12-20T06:56:18;89.38;;;44.70;;
21959;SDS011;11144;43.030;25.108;2023-12-20T06:58:08;95.50;;;47.10;;
21959;SDS011;11144;43.030;25.108;2023-12-20T06:59:42;99.50;;;49.05;;
21959;SDS011;11144;43.030;25.108;2023-12-20T07:01:14;70.38;;;38.72;;
21959;SDS011;11144;43.030;25.108;2023-12-20T07:02:50;68.45;;;36.50;;
21959;SDS011;11144;43.030;25.108;2023-12-20T07:04:23;64.80;;;35.85;;
21959;SDS011;11144;43.030;25.108;2023-12-20T07:05:56;75.32;;;39.10;;
21959;SDS011;11144;43.030;25.108;2023-12-20T07:07:28;67.03;;;38.50;;
21959;SDS011;11144;43.030;25.108;2023-12-20T07:09:02;62.05;;;33.65;;
21959;SDS011;11144;43.030;25.108;2023-12-20T07:10:34;65.13;;;36.08;;
21959;SDS011;11144;43.030;25.108;2023-12-20T07:12:08;58.72;;;31.40;;
21959;SDS011;11144;43.030;25.108;2023-12-20T07:13:40;68.75;;;36.15;;
21959;SDS011;11144;43.030;25.108;2023-12-20T07:15:13;85.80;;;48.60;;
21959;SDS011;11144;43.030;25.108;2023-12-20T07:16:47;73.18;;;35.63;;
21959;SDS011;11144;43.030;25.108;2023-12-20T07:18:20;68.65;;;35.28;;
21959;SDS011;11144;43.030;25.108;2023-12-20T07:19:54;68.03;;;37.83;;
21959;SDS011;11144;43.030;25.108;2023-12-20T07:21:26;62.15;;;33.15;;
21959;SDS011;11144;43.030;25.108;2023-12-20T07:22:59;61.15;;;33.38;;
21959;SDS011;11144;43.030;25.108;2023-12-20T07:24:32;61.25;;;33.80;;
21959;SDS011;11144;43.030;25.108;2023-12-20T07:26:05;59.17;;;33.75;;
21959;SDS011;11144;43.030;25.108;2023-12-20T07:27:37;73.82;;;45.10;;
21959;SDS011;11144;43.030;25.108;2023-12-20T07:29:14;87.32;;;52.88;;
21959;SDS011;11144;43.030;25.108;2023-12-20T07:30:46;68.25;;;41.45;;
21959;SDS011;11144;43.030;25.108;2023-12-20T07:32:20;88.63;;;49.58;;
21959;SDS011;11144;43.030;25.108;2023-12-20T07:33:54;61.80;;;36.15;;
21959;SDS011;11144;43.030;25.108;2023-12-20T07:35:27;61.17;;;34.45;;
21959;SDS011;11144;43.030;25.108;2023-12-20T07:37:01;68.57;;;37.88;;
21959;SDS011;11144;43.030;25.108;2023-12-20T07:38:33;59.58;;;33.70;;
21959;SDS011;11144;43.030;25.108;2023-12-20T07:40:07;57.92;;;34.70;;
21959;SDS011;11144;43.030;25.108;2023-12-20T07:41:41;55.72;;;31.92;;
21959;SDS011;11144;43.030;25.108;2023-12-20T07:43:16;55.67;;;33.97;;
21959;SDS011;11144;43.030;25.108;2023-12-20T07:44:49;48.40;;;29.90;;
21959;SDS011;11144;43.030;25.108;2023-12-20T07:46:22;44.92;;;28.73;;
21959;SDS011;11144;43.030;25.108;2023-12-20T07:47:55;52.00;;;31.13;;
21959;SDS011;11144;43.030;25.108;2023-12-20T07:49:30;55.45;;;33.50;;
21959;SDS011;11144;43.030;25.108;2023-12-20T07:51:02;61.30;;;35.75;;
21959;SDS011;11144;43.030;25.108;2023-12-20T07:52:37;52.72;;;33.17;;
21959;SDS011;11144;43.030;25.108;2023-12-20T07:54:09;54.17;;;33.42;;
21959;SDS011;11144;43.030;25.108;2023-12-20T07:55:43;52.17;;;29.95;;
21959;SDS011;11144;43.030;25.108;2023-12-20T07:57:16;51.63;;;33.28;;
21959;SDS011;11144;43.030;25.108;2023-12-20T07:58:49;47.47;;;30.02;;
21959;SDS011;11144;43.030;25.108;2023-12-20T08:00:24;45.20;;;29.75;;
21959;SDS011;11144;43.030;25.108;2023-12-20T08:01:59;42.72;;;28.40;;
21959;SDS011;11144;43.030;25.108;2023-12-20T08:03:32;58.08;;;33.55;;
21959;SDS011;11144;43.030;25.108;2023-12-20T08:05:07;62.05;;;36.50;;
21959;SDS011;11144;43.030;25.108;2023-12-20T08:06:41;61.03;;;38.08;;
21959;SDS011;11144;43.030;25.108;2023-12-20T08:08:13;59.55;;;37.78;;
21959;SDS011;11144;43.030;25.108;2023-12-20T08:09:46;56.30;;;36.80;;
21959;SDS011;11144;43.030;25.108;2023-12-20T08:11:19;59.75;;;37.20;;
21959;SDS011;11144;43.030;25.108;2023-12-20T08:12:52;60.58;;;37.67;;
21959;SDS011;11144;43.030;25.108;2023-12-20T08:14:24;60.47;;;38.22;;
21959;SDS011;11144;43.030;25.108;2023-12-20T08:15:58;52.95;;;33.83;;
21959;SDS011;11144;43.030;25.108;2023-12-20T08:17:34;58.38;;;36.25;;
21959;SDS011;11144;43.030;25.108;2023-12-20T08:19:07;54.70;;;36.45;;
21959;SDS011;11144;43.030;25.108;2023-12-20T08:20:41;64.72;;;36.88;;
21959;SDS011;11144;43.030;25.108;2023-12-20T08:22:14;54.53;;;34.65;;
21959;SDS011;11144;43.030;25.108;2023-12-20T08:23:47;59.30;;;38.80;;
21959;SDS011;11144;43.030;25.108;2023-12-20T08:25:21;64.88;;;38.90;;
21959;SDS011;11144;43.030;25.108;2023-12-20T08:26:54;52.45;;;34.22;;
21959;SDS011;11144;43.030;25.108;2023-12-20T08:28:27;63.17;;;40.30;;
21959;SDS011;11144;43.030;25.108;2023-12-20T08:30:00;56.30;;;37.83;;
21959;SDS011;11144;43.030;25.108;2023-12-20T08:31:33;58.15;;;37.10;;
21959;SDS011;11144;43.030;25.108;2023-12-20T08:33:06;49.72;;;35.92;;
21959;SDS011;11144;43.030;25.108;2023-12-20T08:34:43;51.90;;;34.40;;
21959;SDS011;11144;43.030;25.108;2023-12-20T08:36:17;54.25;;;36.50;;
21959;SDS011;11144;43.030;25.108;2023-12-20T08:37:51;42.63;;;29.48;;
21959;SDS011;11144;43.030;25.108;2023-12-20T08:39:24;44.28;;;29.30;;
21959;SDS011;11144;43.030;25.108;2023-12-20T08:40:56;43.17;;;30.20;;
21959;SDS011;11144;43.030;25.108;2023-12-20T08:42:30;42.35;;;29.80;;
21959;SDS011;11144;43.030;25.108;2023-12-20T08:44:03;47.08;;;32.95;;
21959;SDS011;11144;43.030;25.108;2023-12-20T08:45:37;38.65;;;28.92;;
21959;SDS011;11144;43.030;25.108;2023-12-20T08:47:10;43.17;;;31.50;;
21959;SDS011;11144;43.030;25.108;2023-12-20T08:48:45;37.58;;;28.60;;
21959;SDS011;11144;43.030;25.108;2023-12-20T08:50:17;53.08;;;34.60;;
21959;SDS011;11144;43.030;25.108;2023-12-20T08:51:52;54.63;;;35.47;;
21959;SDS011;11144;43.030;25.108;2023-12-20T08:53:24;51.10;;;34.35;;
21959;SDS011;11144;43.030;25.108;2023-12-20T08:54:58;50.15;;;35.40;;
21959;SDS011;11144;43.030;25.108;2023-12-20T08:56:31;53.55;;;36.95;;
21959;SDS011;11144;43.030;25.108;2023-12-20T08:58:04;45.30;;;32.13;;